x

Dunkirk, Ny (dbln6) Weather Station

12:00am - Sun 24th Sep 2017 All times are CDT. -5 hours from GMT.

  • Wind
    2mph, 2mph gusts
  • Air Temp 71°f
  • Sea Pressure 1020.4mb
  • Dunkirk, Ny
  • Dunkirk, Ny

More Historic Weather Station data

Upgrade to MSW Pro to gain access to the past 30 days of data for over 8000 Wavebouys and Weather Stations around the globe.

Join

Comparision Forecast

View Surf forecast
   
Sun 09/24 12:00am 2 2 mph 1020.4mb 71f
Sat 09/23 11:00pm 5 6 mph 1020.2mb 73f
10:00pm 6 7 mph 1020.2mb 73f
9:00pm 5 7 mph 1020.2mb 73f
8:00pm 3 3 mph 1020.1mb 74f
7:00pm 6 6 mph 1019.6mb 74f
6:00pm 5 6 mph 1019.6mb 76f
5:00pm 6 6 mph 1019.6mb 76f
4:00pm 6 8 mph 1019.9mb 77f
3:00pm 6 6 mph 1020.4mb 75f
2:00pm 5 6 mph 1021mb 74f
1:00pm 3 5 mph 1021.4mb 73f
12:00pm 2 5 mph 1021.5mb 73f
11:00am 6 6 mph 1021.4mb 73f
10:00am 3 3 mph 1021.9mb 73f
9:00am 3 6 mph 1021.8mb 73f
8:00am 3 3 mph 1021.6mb 69f
7:00am 6 7 mph 1020.8mb 65f
6:00am  -  2 mph 1020.5mb 64f
5:00am 2 3 mph 1019.7mb 64f
4:00am 8 9 mph 1018.6mb 65f
3:00am 5 6 mph 1019.1mb 63f
2:00am 2 2 mph 1018.8mb 66f
1:00am 5 6 mph 1019.1mb 67f
12:00am  -  1 mph 1019.4mb 68f
Fri 09/22 11:00pm  -  0 mph 1019.5mb 68f
10:00pm 6 7 mph 1019.4mb 67f
9:00pm 6 6 mph 1019.2mb 69f
8:00pm 2 2 mph 1019.4mb 70f
7:00pm 2 3 mph 1019.3mb 73f
6:00pm 3 3 mph 1019.2mb 76f
5:00pm 3 5 mph 1019.2mb 75f
4:00pm 3 3 mph 1019.3mb 73f
3:00pm 7 7 mph 1019.7mb 73f
2:00pm 10 11 mph 1020.2mb 72f
1:00pm 10 13 mph 1020.4mb 71f
12:00pm 10 10 mph 1020.9mb 70f
11:00am 9 10 mph 1021.2mb 70f
10:00am 6 7 mph 1021.5mb 70f
9:00am 2 3 mph 1021.5mb 68f
8:00am 2 3 mph 1021.4mb 67f
7:00am 7 8 mph 1021.2mb 64f
6:00am 1 2 mph 1021mb 63f
5:00am 7 7 mph 1020.3mb 64f
4:00am 3 5 mph 1020.5mb 65f
3:00am 1 2 mph 1019.8mb 67f
2:00am 2 2 mph 1019.8mb 67f
1:00am 2 5 mph 1019.8mb 67f
12:00am 3 3 mph 1019.9mb 67f
Thu 09/21 11:00pm 3 5 mph 1020mb 67f
10:00pm 3 3 mph 1020mb 69f
9:00pm 2 2 mph 1020mb 70f
8:00pm 2 2 mph 1019.8mb 73f
7:00pm 8 10 mph 1019.2mb 73f
6:00pm 2 2 mph 1019mb 75f
5:00pm 3 3 mph 1019.1mb 73f
4:00pm 3 3 mph 1019.1mb 73f
3:00pm 3 5 mph 1019.2mb 73f
2:00pm 7 8 mph 1019.6mb 72f
1:00pm 7 8 mph 1019.6mb 71f
12:00pm 7 8 mph 1020mb 70f
11:00am 6 6 mph 1020.3mb 69f
10:00am 6 7 mph 1020.5mb 68f
9:00am 3 5 mph 1019.9mb 68f
8:00am 3 5 mph 1019.8mb 68f
7:00am 2 3 mph 1019.8mb 66f
6:00am 5 6 mph 1019.6mb 63f
5:00am 6 7 mph 1019.3mb 66f
4:00am 2 3 mph 1019.3mb 66f
3:00am 6 7 mph 1019.2mb 66f
2:00am 5 5 mph 1018.6mb 67f
1:00am 3 5 mph 1017.9mb 67f
12:00am  -  1 mph 1017.5mb 69f
Wed 09/20 11:00pm  -  1 mph 1017.3mb 68f
10:00pm 5 6 mph 1017.1mb 68f
9:00pm 6 7 mph 1017.1mb 69f
8:00pm  -  0 mph 1017.3mb 72f
7:00pm 1 2 mph 1016.9mb 73f
6:00pm  -  1 mph 1016.5mb 74f
5:00pm 1 1 mph 1016.2mb 76f
4:00pm 1 2 mph 1016.2mb 74f
3:00pm 3 3 mph 1016.2mb 72f
2:00pm 2 3 mph 1016.6mb 72f
1:00pm 3 5 mph 1017.1mb 70f
12:00pm 3 3 mph 1017.6mb 70f
11:00am 5 5 mph 1017.6mb 71f
10:00am 3 5 mph 1017.5mb 69f
9:00am 1 2 mph 1017.5mb 69f
8:00am  -  0 mph 1017.2mb 70f
7:00am 5 8 mph 1016.9mb 66f